createdAt,value
2018-07-11T00:00:34.524Z,9.87
2018-07-11T00:03:03.291Z,6.93
2018-07-11T00:05:31.660Z,10.13
2018-07-11T00:07:59.895Z,7.23
2018-07-11T00:10:28.160Z,11.27
2018-07-11T00:12:56.720Z,8.03
2018-07-11T00:15:25.065Z,8.73
2018-07-11T00:17:53.317Z,13.63
2018-07-11T00:20:21.765Z,6.60
2018-07-11T00:22:50.023Z,7.80
2018-07-11T00:25:18.501Z,7.47
2018-07-11T00:27:47.023Z,9.30
2018-07-11T00:30:15.399Z,8.50
2018-07-11T00:32:45.516Z,13.97
2018-07-11T00:35:14.312Z,28.70
2018-07-11T00:37:43.571Z,19.13
2018-07-11T00:40:12.111Z,13.87
2018-07-11T00:42:40.875Z,13.17
2018-07-11T00:45:09.479Z,10.63
2018-07-11T00:47:38.207Z,9.53
2018-07-11T00:50:07.034Z,11.73
2018-07-11T00:52:35.846Z,18.37
2018-07-11T00:55:04.441Z,28.13
2018-07-11T00:57:34.869Z,23.53
2018-07-11T01:00:03.436Z,19.93
2018-07-11T01:02:32.075Z,13.60
2018-07-11T01:05:00.724Z,17.40
2018-07-11T01:07:29.766Z,9.47
2018-07-11T01:09:58.580Z,15.10
2018-07-11T01:12:27.257Z,13.73
2018-07-11T01:14:55.691Z,17.33
2018-07-11T01:17:29.441Z,16.97
2018-07-11T01:19:57.824Z,14.53
2018-07-11T01:22:26.247Z,12.77
2018-07-11T01:24:54.787Z,15.77
2018-07-11T01:27:23.266Z,15.57
2018-07-11T01:29:51.737Z,20.90
2018-07-11T01:32:20.715Z,17.23
2018-07-11T01:34:49.221Z,12.50
2018-07-11T01:37:19.151Z,16.00
2018-07-11T01:39:47.939Z,14.73
2018-07-11T01:42:17.208Z,15.97
2018-07-11T01:44:47.990Z,18.67
2018-07-11T01:47:16.667Z,16.43
2018-07-11T01:49:45.397Z,13.37
2018-07-11T01:52:25.517Z,13.07
2018-07-11T01:54:54.133Z,17.50
2018-07-11T01:57:23.165Z,14.87
2018-07-11T01:59:51.633Z,18.43
2018-07-11T02:02:19.923Z,15.70
2018-07-11T02:04:48.254Z,15.70
2018-07-11T02:07:16.512Z,16.83
2018-07-11T02:09:48.904Z,15.93
2018-07-11T02:12:17.305Z,16.23
2018-07-11T02:14:51.089Z,17.90
2018-07-11T02:17:19.900Z,17.43
2018-07-11T02:19:48.382Z,17.40
2018-07-11T02:22:16.963Z,18.77
2018-07-11T02:24:45.343Z,18.00
2018-07-11T02:27:14.560Z,22.67
2018-07-11T02:29:43.192Z,20.93
2018-07-11T02:32:11.569Z,17.93
2018-07-11T02:34:39.875Z,21.63
2018-07-11T02:37:08.144Z,23.37
2018-07-11T02:39:36.403Z,17.53
2018-07-11T02:42:04.644Z,16.17
2018-07-11T02:44:32.983Z,19.83
2018-07-11T02:47:06.572Z,18.57
2018-07-11T02:49:34.915Z,18.37
2018-07-11T02:52:03.419Z,21.93
2018-07-11T02:54:31.656Z,24.20
2018-07-11T02:56:59.977Z,18.17
2018-07-11T02:59:28.210Z,21.47
2018-07-11T03:01:58.404Z,23.23
2018-07-11T03:04:27.532Z,20.63
2018-07-11T03:06:56.184Z,22.50
2018-07-11T03:09:24.441Z,18.67
2018-07-11T03:11:53.009Z,18.73
2018-07-11T03:14:21.290Z,20.93
2018-07-11T03:16:49.556Z,17.53
2018-07-11T03:19:17.802Z,20.10
2018-07-11T03:21:46.175Z,18.00
2018-07-11T03:24:14.290Z,16.40
2018-07-11T03:26:42.528Z,13.80
2018-07-11T03:29:10.851Z,13.73
2018-07-11T03:31:39.143Z,13.43
2018-07-11T03:34:07.424Z,12.70
2018-07-11T03:36:35.709Z,14.60
2018-07-11T03:39:04.882Z,13.57
2018-07-11T03:41:34.317Z,13.67
2018-07-11T03:44:02.632Z,12.87
2018-07-11T03:46:30.879Z,15.20
2018-07-11T03:48:59.147Z,13.37
2018-07-11T03:51:27.589Z,18.57
2018-07-11T03:53:55.852Z,13.23
2018-07-11T03:56:24.416Z,13.23
2018-07-11T03:58:53.099Z,13.60
2018-07-11T04:01:21.344Z,17.90
2018-07-11T04:03:49.617Z,15.23
2018-07-11T04:06:17.837Z,11.97
2018-07-11T04:08:46.175Z,12.50
2018-07-11T04:11:14.399Z,13.13
2018-07-11T04:13:43.143Z,14.23
2018-07-11T04:16:11.915Z,13.67
2018-07-11T04:18:40.153Z,14.93
2018-07-11T04:21:09.399Z,12.17
2018-07-11T04:23:37.672Z,12.97
2018-07-11T04:26:06.013Z,11.10
2018-07-11T04:28:34.198Z,11.40
2018-07-11T04:31:03.183Z,13.67
2018-07-11T04:33:31.970Z,10.97
2018-07-11T04:36:00.183Z,12.63
2018-07-11T04:38:28.447Z,10.93
2018-07-11T04:40:56.741Z,12.17
2018-07-11T04:43:27.151Z,10.27
2018-07-11T04:45:56.111Z,9.37
2018-07-11T04:48:25.548Z,10.10
2018-07-11T04:50:53.832Z,10.63
2018-07-11T04:53:23.695Z,9.47
2018-07-11T04:55:56.504Z,9.23
2018-07-11T04:58:24.871Z,11.13
2018-07-11T05:00:58.260Z,9.60
2018-07-11T05:03:26.968Z,8.67
2018-07-11T05:05:55.299Z,10.23
2018-07-11T05:08:24.304Z,10.30
2018-07-11T05:10:52.678Z,9.60
2018-07-11T05:13:21.272Z,8.90
2018-07-11T05:15:49.468Z,9.43
2018-07-11T05:18:17.667Z,8.27
2018-07-11T05:20:46.482Z,6.78
2018-07-11T05:23:14.975Z,8.23
2018-07-11T05:25:43.768Z,8.98
2018-07-11T05:28:12.024Z,6.83
2018-07-11T05:30:40.514Z,12.85
2018-07-11T05:33:08.735Z,6.45
2018-07-11T05:35:37.199Z,5.78
2018-07-11T05:38:05.538Z,6.08
2018-07-11T05:40:33.834Z,6.40
2018-07-11T05:43:02.080Z,6.00
2018-07-11T05:45:30.319Z,5.62
2018-07-11T05:47:58.579Z,6.25
2018-07-11T05:50:26.808Z,6.75
2018-07-11T05:52:55.066Z,7.08
2018-07-11T05:55:23.307Z,6.83
2018-07-11T05:57:51.579Z,6.73
2018-07-11T06:00:19.837Z,8.47
2018-07-11T06:02:48.122Z,8.47
2018-07-11T06:05:16.363Z,6.93
2018-07-11T06:07:44.415Z,6.83
2018-07-11T06:10:12.627Z,6.17
2018-07-11T06:12:40.655Z,5.80
2018-07-11T06:15:08.896Z,5.43
2018-07-11T06:17:37.204Z,9.78
2018-07-11T06:20:05.454Z,5.53
2018-07-11T06:22:33.644Z,7.87
2018-07-11T06:25:03.031Z,6.83
2018-07-11T06:27:31.275Z,5.72
2018-07-11T06:29:59.952Z,5.75
2018-07-11T06:32:28.192Z,7.50
2018-07-11T06:34:56.495Z,4.87
2018-07-11T06:37:24.808Z,4.12
2018-07-11T06:39:53.096Z,4.78
2018-07-11T06:42:21.476Z,3.52
2018-07-11T06:44:49.738Z,4.75
2018-07-11T06:47:17.979Z,5.00
2018-07-11T06:49:47.303Z,4.75
2018-07-11T06:52:16.012Z,4.20
2018-07-11T06:54:44.585Z,3.42
2018-07-11T06:57:12.804Z,3.15
2018-07-11T06:59:41.724Z,3.00
2018-07-11T07:02:09.976Z,2.90
2018-07-11T07:04:38.187Z,2.98
2018-07-11T07:07:06.456Z,2.70
2018-07-11T07:09:34.852Z,2.30
2018-07-11T07:12:03.109Z,3.00
2018-07-11T07:14:31.380Z,2.10
2018-07-11T07:16:59.660Z,1.62
2018-07-11T07:19:27.935Z,1.85
2018-07-11T07:21:55.928Z,2.40
2018-07-11T07:24:24.269Z,1.90
2018-07-11T07:26:52.545Z,3.58
2018-07-11T07:29:20.831Z,2.30
2018-07-11T07:31:49.145Z,1.85
2018-07-11T07:34:17.433Z,2.15
2018-07-11T07:36:45.644Z,1.82
2018-07-11T07:39:13.912Z,1.52
2018-07-11T07:41:42.148Z,1.47
2018-07-11T07:44:11.591Z,1.77
2018-07-11T07:46:39.907Z,3.12
2018-07-11T07:49:08.140Z,1.90
2018-07-11T07:51:36.515Z,3.30
2018-07-11T07:54:05.106Z,2.05
2018-07-11T07:56:33.429Z,1.90
2018-07-11T07:59:01.743Z,2.60
2018-07-11T08:01:30.016Z,2.50
2018-07-11T08:03:58.339Z,2.75
2018-07-11T08:06:26.602Z,2.37
2018-07-11T08:08:55.795Z,2.10
2018-07-11T08:11:24.018Z,2.33
2018-07-11T08:13:52.396Z,2.10
2018-07-11T08:16:20.639Z,2.33
2018-07-11T08:18:48.884Z,2.95
2018-07-11T08:21:18.040Z,2.50
2018-07-11T08:23:57.588Z,2.62
2018-07-11T08:26:37.319Z,2.15
2018-07-11T08:29:31.540Z,3.17
2018-07-11T08:33:12.536Z,2.03
2018-07-11T08:35:53.595Z,2.00
2018-07-11T08:40:41.243Z,2.27
2018-07-11T08:43:15.826Z,2.25
2018-07-11T08:45:55.498Z,2.10
2018-07-11T08:48:33.177Z,1.20
2018-07-11T08:51:14.295Z,1.60
2018-07-11T08:54:26.026Z,1.27
2018-07-11T08:57:23.519Z,2.00
2018-07-11T09:00:49.033Z,1.50
2018-07-11T09:03:30.952Z,1.40
2018-07-11T09:08:18.111Z,1.67
2018-07-11T09:13:01.228Z,1.52
2018-07-11T09:16:09.026Z,1.80
2018-07-11T09:18:46.227Z,1.90
2018-07-11T09:21:26.827Z,2.33
2018-07-11T09:24:06.265Z,2.00
2018-07-11T09:26:34.707Z,2.15
2018-07-11T09:29:02.945Z,1.80
2018-07-11T09:31:31.140Z,2.58
2018-07-11T09:33:59.424Z,1.90
2018-07-11T09:36:27.666Z,2.30
2018-07-11T09:38:57.709Z,2.22
2018-07-11T09:41:26.104Z,2.37
2018-07-11T09:43:54.363Z,2.12
2018-07-11T09:46:22.677Z,1.52
2018-07-11T09:48:51.295Z,2.50
2018-07-11T09:51:19.583Z,2.35
2018-07-11T09:53:47.865Z,2.10
2018-07-11T09:56:16.415Z,4.40
2018-07-11T09:58:44.947Z,3.10
2018-07-11T10:01:19.056Z,1.60
2018-07-11T10:03:47.363Z,1.57
2018-07-11T10:06:15.654Z,2.47
2018-07-11T10:08:44.400Z,2.10
2018-07-11T10:11:12.698Z,1.50
2018-07-11T10:13:40.972Z,2.33
2018-07-11T10:16:09.547Z,1.45
2018-07-11T10:18:37.802Z,1.95
2018-07-11T10:21:06.130Z,1.95
2018-07-11T10:23:34.371Z,2.10
2018-07-11T10:26:03.005Z,3.67
2018-07-11T10:28:31.409Z,5.45
2018-07-11T10:30:59.740Z,2.10
2018-07-11T10:33:28.033Z,2.05
2018-07-11T10:35:56.443Z,2.77
2018-07-11T10:38:25.269Z,1.52
2018-07-11T10:40:53.673Z,1.20
2018-07-11T10:43:22.143Z,1.30
2018-07-11T10:45:50.558Z,1.65
2018-07-11T10:48:18.798Z,1.35
2018-07-11T10:50:47.938Z,1.30
2018-07-11T10:53:16.232Z,1.60
2018-07-11T10:55:44.496Z,1.77
2018-07-11T10:58:13.675Z,1.82
2018-07-11T11:01:05.022Z,1.98
2018-07-11T11:03:11.319Z,1.45
2018-07-11T11:05:39.550Z,3.17
2018-07-11T11:08:08.001Z,1.77
2018-07-11T11:10:36.484Z,1.30
2018-07-11T11:13:05.309Z,3.40
2018-07-11T11:15:33.765Z,1.45
2018-07-11T11:18:02.040Z,1.40
2018-07-11T11:20:30.266Z,1.22
2018-07-11T11:22:58.893Z,1.07
2018-07-11T11:25:27.280Z,1.98
2018-07-11T11:27:55.546Z,1.55
2018-07-11T11:30:24.643Z,1.22
2018-07-11T11:32:52.924Z,1.30
2018-07-11T11:35:21.189Z,1.42
2018-07-11T11:37:49.491Z,1.32
2018-07-11T11:40:17.851Z,1.30
2018-07-11T11:42:46.472Z,1.45
2018-07-11T11:45:14.688Z,1.77
2018-07-11T11:47:42.975Z,1.70
2018-07-11T11:50:11.252Z,1.40
2018-07-11T11:52:39.550Z,1.10
2018-07-11T11:55:08.014Z,1.95
2018-07-11T11:57:36.777Z,1.55
2018-07-11T12:00:05.592Z,1.62
2018-07-11T12:02:34.206Z,2.02
2018-07-11T12:05:02.518Z,3.05
2018-07-11T12:07:30.845Z,1.57
2018-07-11T12:09:59.084Z,1.77
2018-07-11T12:12:27.437Z,2.10
2018-07-11T12:14:55.763Z,1.85
2018-07-11T12:17:24.030Z,2.05
2018-07-11T12:19:52.343Z,2.47
2018-07-11T12:22:22.977Z,2.45
2018-07-11T12:24:51.675Z,2.77
2018-07-11T12:27:20.053Z,2.60
2018-07-11T12:29:48.988Z,1.50
2018-07-11T12:32:17.185Z,1.40
2018-07-11T12:34:45.492Z,1.62
2018-07-11T12:37:14.600Z,1.92
2018-07-11T12:39:43.169Z,1.50
2018-07-11T12:42:11.519Z,1.90
2018-07-11T12:44:39.766Z,2.12
2018-07-11T12:47:13.378Z,3.95
2018-07-11T12:49:41.637Z,3.25
2018-07-11T12:52:09.948Z,2.42
2018-07-11T12:54:39.305Z,2.55
2018-07-11T12:57:08.019Z,2.55
2018-07-11T12:59:36.330Z,2.90
2018-07-11T13:02:04.651Z,4.35
2018-07-11T13:04:35.135Z,3.72
2018-07-11T13:07:03.847Z,2.55
2018-07-11T13:09:32.503Z,3.02
2018-07-11T13:12:01.219Z,2.25
2018-07-11T13:14:29.448Z,2.95
2018-07-11T13:16:57.767Z,3.83
2018-07-11T13:19:27.412Z,1.75
2018-07-11T13:21:56.002Z,2.90
2018-07-11T13:24:24.265Z,4.90
2018-07-11T13:26:52.531Z,1.67
2018-07-11T13:29:20.736Z,1.90
2018-07-11T13:31:49.705Z,2.10
2018-07-11T13:34:18.803Z,1.77
2018-07-11T13:36:47.137Z,1.95
2018-07-11T13:39:19.174Z,1.75
2018-07-11T13:41:48.231Z,1.62
2018-07-11T13:44:16.591Z,1.80
2018-07-11T13:46:44.923Z,1.67
2018-07-11T13:49:13.633Z,1.87
2018-07-11T13:51:42.008Z,3.08
2018-07-11T13:54:10.987Z,1.50
2018-07-11T13:56:39.279Z,2.95
2018-07-11T13:59:07.548Z,1.60
2018-07-11T14:01:35.858Z,3.67
2018-07-11T14:04:04.229Z,5.65
2018-07-11T14:06:32.516Z,3.72
2018-07-11T14:09:01.372Z,2.55
2018-07-11T14:11:29.862Z,2.55
2018-07-11T14:13:58.207Z,2.42
2018-07-11T14:16:26.925Z,2.60
2018-07-11T14:18:55.176Z,7.75
2018-07-11T14:21:23.449Z,6.17
2018-07-11T14:23:51.892Z,3.35
2018-07-11T14:26:20.667Z,4.10
2018-07-11T14:28:49.902Z,4.05
2018-07-11T14:31:29.903Z,8.20
2018-07-11T14:34:00.883Z,4.95
2018-07-11T14:36:29.101Z,5.15
2018-07-11T14:38:57.394Z,10.38
2018-07-11T14:41:26.010Z,11.83
2018-07-11T14:43:54.963Z,5.70
2018-07-11T14:46:24.818Z,8.07
2018-07-11T14:48:53.031Z,6.60
2018-07-11T14:51:21.401Z,4.60
2018-07-11T14:53:49.675Z,5.87
2018-07-11T14:56:17.954Z,4.63
2018-07-11T14:58:46.545Z,9.47
2018-07-11T15:01:14.831Z,11.97
2018-07-11T15:03:43.587Z,9.30
2018-07-11T15:06:11.847Z,6.17
2018-07-11T15:08:41.016Z,7.37
2018-07-11T15:11:09.279Z,5.97
2018-07-11T15:13:37.920Z,5.63
2018-07-11T15:16:06.394Z,6.37
2018-07-11T15:18:34.753Z,7.07
2018-07-11T15:21:02.963Z,9.30
2018-07-11T15:23:30.946Z,12.33
2018-07-11T15:25:59.224Z,8.93
2018-07-11T15:28:27.571Z,8.68
2018-07-11T15:30:56.320Z,6.78
2018-07-11T15:33:25.869Z,3.92
2018-07-11T15:35:54.282Z,4.47
2018-07-11T15:38:22.559Z,8.48
2018-07-11T15:40:51.558Z,5.15
2018-07-11T15:43:19.855Z,7.58
2018-07-11T15:45:48.676Z,4.00
2018-07-11T15:48:17.222Z,8.60
2018-07-11T15:50:46.127Z,5.75
2018-07-11T15:53:14.573Z,4.15
2018-07-11T15:55:43.810Z,5.05
2018-07-11T15:58:13.805Z,7.20
2018-07-11T16:00:43.739Z,7.60
2018-07-11T16:03:13.495Z,3.30
2018-07-11T16:05:43.888Z,5.20
2018-07-11T16:08:19.366Z,5.55
2018-07-11T16:10:49.385Z,3.92
2018-07-11T16:13:17.705Z,4.12
2018-07-11T16:15:46.355Z,6.58
2018-07-11T16:18:14.638Z,8.13
2018-07-11T16:20:43.371Z,3.98
2018-07-11T16:23:11.784Z,4.17
2018-07-11T16:25:41.324Z,4.95
2018-07-11T16:28:10.246Z,7.37
2018-07-11T16:30:39.148Z,3.85
2018-07-11T16:33:07.944Z,4.03
2018-07-11T16:35:36.195Z,5.75
2018-07-11T16:38:05.228Z,5.40
2018-07-11T16:40:34.435Z,5.12
2018-07-11T16:43:04.173Z,6.55
2018-07-11T16:45:32.470Z,4.78
2018-07-11T16:48:01.152Z,5.67
2018-07-11T16:50:29.483Z,4.70
2018-07-11T16:52:58.082Z,5.10
2018-07-11T16:55:27.166Z,8.28
2018-07-11T16:57:56.191Z,7.65
2018-07-11T17:00:40.279Z,5.80
2018-07-11T17:03:09.941Z,6.70
2018-07-11T17:06:05.356Z,5.22
2018-07-11T17:08:35.319Z,4.80
2018-07-11T17:11:19.305Z,4.90
2018-07-11T17:13:53.560Z,6.20
2018-07-11T17:16:30.123Z,4.50
2018-07-11T17:19:01.959Z,7.65
2018-07-11T17:21:46.236Z,5.45
2018-07-11T17:24:17.543Z,8.33
2018-07-11T17:26:47.587Z,5.25
2018-07-11T17:29:23.782Z,5.70
2018-07-11T17:31:54.679Z,5.90
2018-07-11T17:34:23.747Z,7.73
2018-07-11T17:37:02.089Z,8.73
2018-07-11T17:39:52.907Z,9.00
2018-07-11T17:42:24.744Z,7.43
2018-07-11T17:45:04.047Z,12.67
2018-07-11T17:47:35.349Z,7.47
2018-07-11T17:50:06.488Z,7.90
2018-07-11T17:52:41.847Z,7.57
2018-07-11T17:55:12.815Z,5.92
2018-07-11T17:57:50.955Z,7.28
2018-07-11T18:01:37.091Z,6.87
2018-07-11T18:04:17.329Z,7.00
2018-07-11T18:06:59.372Z,10.53
2018-07-11T18:09:31.438Z,6.77
2018-07-11T18:13:14.544Z,7.28
2018-07-11T18:15:49.175Z,7.00
2018-07-11T18:18:26.089Z,6.43
2018-07-11T18:21:09.448Z,6.20
2018-07-11T18:23:46.573Z,10.32
2018-07-11T18:26:30.053Z,6.07
2018-07-11T18:30:07.236Z,6.55
2018-07-11T18:32:48.844Z,5.23
2018-07-11T18:36:31.903Z,6.25
2018-07-11T18:39:14.807Z,6.45
2018-07-11T18:42:51.864Z,6.67
2018-07-11T18:45:32.687Z,6.00
2018-07-11T18:50:16.731Z,6.22
2018-07-11T18:52:52.378Z,5.50
2018-07-11T18:55:39.383Z,7.58
2018-07-11T18:59:18.239Z,5.85
2018-07-11T19:01:55.266Z,5.70
2018-07-11T19:04:39.523Z,6.20
2018-07-11T19:07:14.527Z,9.78
2018-07-11T19:09:49.919Z,7.80
2018-07-11T19:12:29.459Z,6.35
2018-07-11T19:15:05.646Z,5.17
2018-07-11T19:18:11.462Z,5.83
2018-07-11T19:21:16.347Z,5.97
2018-07-11T19:23:56.505Z,5.50
2018-07-11T19:26:34.092Z,8.97
2018-07-11T19:29:10.930Z,5.80
2018-07-11T19:31:55.296Z,6.70
2018-07-11T19:34:33.492Z,7.33
2018-07-11T19:37:12.296Z,9.50
2018-07-11T19:39:46.160Z,9.60
2018-07-11T19:43:27.347Z,9.63
2018-07-11T19:47:09.495Z,11.20
2018-07-11T19:50:26.511Z,10.20
2018-07-11T19:53:05.931Z,12.90
2018-07-11T19:55:43.734Z,13.73
2018-07-11T19:58:12.009Z,13.77
2018-07-11T20:00:41.692Z,15.67
2018-07-11T20:03:09.943Z,17.37
2018-07-11T20:05:38.269Z,14.70
2018-07-11T20:08:07.242Z,13.87
2018-07-11T20:10:35.763Z,14.20
2018-07-11T20:13:05.171Z,16.70
2018-07-11T20:15:33.122Z,18.73
2018-07-11T20:18:01.364Z,20.27
2018-07-11T20:20:29.601Z,17.70
2018-07-11T20:22:57.856Z,18.90
2018-07-11T20:25:26.123Z,19.13
2018-07-11T20:27:54.392Z,19.67
2018-07-11T20:30:23.095Z,26.80
2018-07-11T20:32:51.496Z,25.97
2018-07-11T20:35:19.729Z,23.33
2018-07-11T20:37:48.613Z,28.90
2018-07-11T20:40:16.881Z,21.83
2018-07-11T20:42:45.150Z,28.23
2018-07-11T20:45:13.387Z,24.47
2018-07-11T20:47:42.173Z,30.40
2018-07-11T20:50:10.631Z,28.73
2018-07-11T20:52:40.825Z,24.43
2018-07-11T20:55:09.187Z,27.43
2018-07-11T20:57:38.100Z,28.53
2018-07-11T21:00:17.717Z,31.20
2018-07-11T21:03:01.901Z,34.23
2018-07-11T21:05:44.327Z,32.33
2018-07-11T21:08:21.509Z,30.43
2018-07-11T21:14:05.436Z,33.40
2018-07-11T21:16:48.667Z,33.70
2018-07-11T21:19:17.261Z,41.30
2018-07-11T21:21:45.590Z,37.23
2018-07-11T21:24:14.187Z,45.33
2018-07-11T21:26:42.943Z,41.43
2018-07-11T21:29:14.672Z,42.20
2018-07-11T21:31:43.006Z,39.47
2018-07-11T21:34:11.291Z,42.13
2018-07-11T21:36:39.588Z,44.33
2018-07-11T21:39:07.875Z,38.27
2018-07-11T21:41:36.143Z,43.30
2018-07-11T21:44:06.039Z,41.60
2018-07-11T21:46:34.611Z,41.00
2018-07-11T21:49:02.946Z,36.93
2018-07-11T21:51:31.164Z,35.97
2018-07-11T21:53:59.515Z,36.73
2018-07-11T21:56:27.772Z,34.10
2018-07-11T21:58:56.046Z,35.13
2018-07-11T22:01:24.355Z,35.17
2018-07-11T22:03:52.624Z,35.30
2018-07-11T22:06:20.928Z,40.07
2018-07-11T22:08:49.171Z,39.10
2018-07-11T22:11:17.907Z,34.20
2018-07-11T22:13:46.219Z,34.13
2018-07-11T22:16:14.538Z,31.97
2018-07-11T22:18:44.059Z,37.27
2018-07-11T22:21:12.321Z,31.00
2018-07-11T22:23:39.801Z,35.27
2018-07-11T22:26:07.032Z,36.73
2018-07-11T22:28:36.129Z,31.73
2018-07-11T22:31:03.362Z,33.00
2018-07-11T22:33:30.590Z,32.53
2018-07-11T22:35:57.876Z,33.57
2018-07-11T22:38:25.719Z,34.07
2018-07-11T22:40:52.923Z,33.00
2018-07-11T22:43:20.141Z,38.60
2018-07-11T22:45:47.359Z,34.60
2018-07-11T22:48:14.627Z,34.53
2018-07-11T22:50:41.878Z,37.00
2018-07-11T22:53:09.070Z,34.83
2018-07-11T22:55:36.562Z,39.30
2018-07-11T22:58:03.763Z,35.77
2018-07-11T23:00:30.991Z,41.57
2018-07-11T23:02:58.476Z,38.97
2018-07-11T23:05:25.703Z,37.70
2018-07-11T23:07:52.927Z,42.90
2018-07-11T23:10:20.683Z,43.07
2018-07-11T23:12:47.915Z,46.57
2018-07-11T23:15:15.135Z,42.00
2018-07-11T23:17:42.340Z,38.77
2018-07-11T23:20:09.611Z,43.43
2018-07-11T23:22:36.839Z,40.53
2018-07-11T23:25:04.063Z,39.50
2018-07-11T23:27:31.320Z,43.33
2018-07-11T23:29:59.172Z,41.97
2018-07-11T23:32:26.821Z,39.33
2018-07-11T23:34:54.227Z,40.90
2018-07-11T23:37:21.695Z,46.43
2018-07-11T23:39:48.918Z,47.20
2018-07-11T23:42:16.418Z,39.60
2018-07-11T23:44:44.463Z,42.20
2018-07-11T23:47:11.708Z,41.20
2018-07-11T23:49:38.892Z,47.27
2018-07-11T23:52:06.119Z,43.47
2018-07-11T23:54:33.359Z,44.57
2018-07-11T23:57:00.578Z,46.70
2018-07-11T23:59:28.191Z,44.50
